sensor_id;sensor_type;location;lat;lon;timestamp;P1;durP1;ratioP1;P2;durP2;ratioP2
52952;SDS011;38815;55.932;-3.232;2022-08-19T00:01:32;17.17;;;2.92;;
52952;SDS011;38815;55.932;-3.232;2022-08-19T00:03:59;15.32;;;3.05;;
52952;SDS011;38815;55.932;-3.232;2022-08-19T00:06:27;12.00;;;2.58;;
52952;SDS011;38815;55.932;-3.232;2022-08-19T00:08:54;16.92;;;3.00;;
52952;SDS011;38815;55.932;-3.232;2022-08-19T00:11:21;17.38;;;2.80;;
52952;SDS011;38815;55.932;-3.232;2022-08-19T00:13:47;13.65;;;3.60;;
52952;SDS011;38815;55.932;-3.232;2022-08-19T00:16:15;19.63;;;3.88;;
52952;SDS011;38815;55.932;-3.232;2022-08-19T00:18:43;18.23;;;3.17;;
52952;SDS011;38815;55.932;-3.232;2022-08-19T00:21:08;12.90;;;2.70;;
52952;SDS011;38815;55.932;-3.232;2022-08-19T00:23:34;14.25;;;3.90;;
52952;SDS011;38815;55.932;-3.232;2022-08-19T00:26:02;15.25;;;3.95;;
52952;SDS011;38815;55.932;-3.232;2022-08-19T00:28:29;17.80;;;3.28;;
52952;SDS011;38815;55.932;-3.232;2022-08-19T00:30:55;15.82;;;4.53;;
52952;SDS011;38815;55.932;-3.232;2022-08-19T00:33:21;20.02;;;7.88;;
52952;SDS011;38815;55.932;-3.232;2022-08-19T00:35:46;14.90;;;2.88;;
52952;SDS011;38815;55.932;-3.232;2022-08-19T00:38:12;16.90;;;3.25;;
52952;SDS011;38815;55.932;-3.232;2022-08-19T00:40:38;19.00;;;4.60;;
52952;SDS011;38815;55.932;-3.232;2022-08-19T00:43:10;22.70;;;3.35;;
52952;SDS011;38815;55.932;-3.232;2022-08-19T00:48:06;14.43;;;3.30;;
52952;SDS011;38815;55.932;-3.232;2022-08-19T00:50:31;16.40;;;2.90;;
52952;SDS011;38815;55.932;-3.232;2022-08-19T00:52:58;21.02;;;6.90;;
52952;SDS011;38815;55.932;-3.232;2022-08-19T00:55:25;13.02;;;2.58;;
52952;SDS011;38815;55.932;-3.232;2022-08-19T00:58:03;15.43;;;3.35;;
52952;SDS011;38815;55.932;-3.232;2022-08-19T01:00:32;13.23;;;3.00;;
52952;SDS011;38815;55.932;-3.232;2022-08-19T01:03:06;15.43;;;3.78;;
52952;SDS011;38815;55.932;-3.232;2022-08-19T01:05:33;15.05;;;3.25;;
52952;SDS011;38815;55.932;-3.232;2022-08-19T01:08:00;18.67;;;6.47;;
52952;SDS011;38815;55.932;-3.232;2022-08-19T01:10:30;12.75;;;3.13;;
52952;SDS011;38815;55.932;-3.232;2022-08-19T01:12:59;17.20;;;3.83;;
52952;SDS011;38815;55.932;-3.232;2022-08-19T01:15:29;13.13;;;2.90;;
52952;SDS011;38815;55.932;-3.232;2022-08-19T01:17:57;11.95;;;2.90;;
52952;SDS011;38815;55.932;-3.232;2022-08-19T01:20:26;15.10;;;3.65;;
52952;SDS011;38815;55.932;-3.232;2022-08-19T01:22:53;14.45;;;2.60;;
52952;SDS011;38815;55.932;-3.232;2022-08-19T01:25:22;16.30;;;3.47;;
52952;SDS011;38815;55.932;-3.232;2022-08-19T01:27:52;17.17;;;2.90;;
52952;SDS011;38815;55.932;-3.232;2022-08-19T01:30:22;15.35;;;3.90;;
52952;SDS011;38815;55.932;-3.232;2022-08-19T01:32:55;11.70;;;3.13;;
52952;SDS011;38815;55.932;-3.232;2022-08-19T01:35:22;15.07;;;3.33;;
52952;SDS011;38815;55.932;-3.232;2022-08-19T01:40:17;15.43;;;3.67;;
52952;SDS011;38815;55.932;-3.232;2022-08-19T01:42:46;13.63;;;2.95;;
52952;SDS011;38815;55.932;-3.232;2022-08-19T01:45:13;15.23;;;3.20;;
52952;SDS011;38815;55.932;-3.232;2022-08-19T01:47:38;15.88;;;3.10;;
52952;SDS011;38815;55.932;-3.232;2022-08-19T01:50:05;17.52;;;3.15;;
52952;SDS011;38815;55.932;-3.232;2022-08-19T01:52:34;14.43;;;3.45;;
52952;SDS011;38815;55.932;-3.232;2022-08-19T01:55:00;14.45;;;3.08;;
52952;SDS011;38815;55.932;-3.232;2022-08-19T01:57:26;14.18;;;3.45;;
52952;SDS011;38815;55.932;-3.232;2022-08-19T01:59:52;12.93;;;2.95;;
52952;SDS011;38815;55.932;-3.232;2022-08-19T02:02:17;18.58;;;6.57;;
52952;SDS011;38815;55.932;-3.232;2022-08-19T02:04:43;19.42;;;3.67;;
52952;SDS011;38815;55.932;-3.232;2022-08-19T02:07:08;14.77;;;3.17;;
52952;SDS011;38815;55.932;-3.232;2022-08-19T02:09:34;15.50;;;3.70;;
52952;SDS011;38815;55.932;-3.232;2022-08-19T02:12:00;18.85;;;3.75;;
52952;SDS011;38815;55.932;-3.232;2022-08-19T02:14:25;13.68;;;3.35;;
52952;SDS011;38815;55.932;-3.232;2022-08-19T02:16:51;15.40;;;2.47;;
52952;SDS011;38815;55.932;-3.232;2022-08-19T02:19:16;14.32;;;3.00;;
52952;SDS011;38815;55.932;-3.232;2022-08-19T02:21:42;18.33;;;3.30;;
52952;SDS011;38815;55.932;-3.232;2022-08-19T02:24:08;16.50;;;3.53;;
52952;SDS011;38815;55.932;-3.232;2022-08-19T02:26:34;18.67;;;3.30;;
52952;SDS011;38815;55.932;-3.232;2022-08-19T02:29:00;14.38;;;2.97;;
52952;SDS011;38815;55.932;-3.232;2022-08-19T02:31:26;16.58;;;3.10;;
52952;SDS011;38815;55.932;-3.232;2022-08-19T02:33:53;17.30;;;3.58;;
52952;SDS011;38815;55.932;-3.232;2022-08-19T02:36:20;15.13;;;3.78;;
52952;SDS011;38815;55.932;-3.232;2022-08-19T02:38:45;13.35;;;3.38;;
52952;SDS011;38815;55.932;-3.232;2022-08-19T02:41:12;12.27;;;2.58;;
52952;SDS011;38815;55.932;-3.232;2022-08-19T02:43:41;15.57;;;2.72;;
52952;SDS011;38815;55.932;-3.232;2022-08-19T02:48:47;16.17;;;2.83;;
52952;SDS011;38815;55.932;-3.232;2022-08-19T02:51:20;15.25;;;2.65;;
52952;SDS011;38815;55.932;-3.232;2022-08-19T02:53:48;13.88;;;2.72;;
52952;SDS011;38815;55.932;-3.232;2022-08-19T02:56:14;11.88;;;2.38;;
52952;SDS011;38815;55.932;-3.232;2022-08-19T02:58:40;13.88;;;2.58;;
52952;SDS011;38815;55.932;-3.232;2022-08-19T03:01:06;13.30;;;2.65;;
52952;SDS011;38815;55.932;-3.232;2022-08-19T03:03:32;14.63;;;2.75;;
52952;SDS011;38815;55.932;-3.232;2022-08-19T03:08:29;12.45;;;2.75;;
52952;SDS011;38815;55.932;-3.232;2022-08-19T03:10:55;13.48;;;3.08;;
52952;SDS011;38815;55.932;-3.232;2022-08-19T03:13:20;11.48;;;2.50;;
52952;SDS011;38815;55.932;-3.232;2022-08-19T03:15:46;11.02;;;2.75;;
52952;SDS011;38815;55.932;-3.232;2022-08-19T03:18:12;14.15;;;3.47;;
52952;SDS011;38815;55.932;-3.232;2022-08-19T03:20:42;13.90;;;2.67;;
52952;SDS011;38815;55.932;-3.232;2022-08-19T03:23:10;15.25;;;2.80;;
52952;SDS011;38815;55.932;-3.232;2022-08-19T03:25:41;13.18;;;3.22;;
52952;SDS011;38815;55.932;-3.232;2022-08-19T03:28:08;14.10;;;3.70;;
52952;SDS011;38815;55.932;-3.232;2022-08-19T03:30:38;12.00;;;2.58;;
52952;SDS011;38815;55.932;-3.232;2022-08-19T03:33:07;19.13;;;3.03;;
52952;SDS011;38815;55.932;-3.232;2022-08-19T03:35:34;14.27;;;2.40;;
52952;SDS011;38815;55.932;-3.232;2022-08-19T03:38:02;17.88;;;3.35;;
52952;SDS011;38815;55.932;-3.232;2022-08-19T03:40:31;13.38;;;2.83;;
52952;SDS011;38815;55.932;-3.232;2022-08-19T03:42:59;18.38;;;2.85;;
52952;SDS011;38815;55.932;-3.232;2022-08-19T03:45:25;14.63;;;2.70;;
52952;SDS011;38815;55.932;-3.232;2022-08-19T03:47:52;18.30;;;3.67;;
52952;SDS011;38815;55.932;-3.232;2022-08-19T03:50:17;18.98;;;2.88;;
52952;SDS011;38815;55.932;-3.232;2022-08-19T03:52:47;11.70;;;2.85;;
52952;SDS011;38815;55.932;-3.232;2022-08-19T03:55:15;15.05;;;3.15;;
52952;SDS011;38815;55.932;-3.232;2022-08-19T03:57:40;13.55;;;3.20;;
52952;SDS011;38815;55.932;-3.232;2022-08-19T04:00:06;14.63;;;2.92;;
52952;SDS011;38815;55.932;-3.232;2022-08-19T04:02:32;13.60;;;3.92;;
52952;SDS011;38815;55.932;-3.232;2022-08-19T04:04:58;14.90;;;3.58;;
52952;SDS011;38815;55.932;-3.232;2022-08-19T04:07:23;16.02;;;2.50;;
52952;SDS011;38815;55.932;-3.232;2022-08-19T04:09:49;20.63;;;3.67;;
52952;SDS011;38815;55.932;-3.232;2022-08-19T04:12:16;14.73;;;3.42;;
52952;SDS011;38815;55.932;-3.232;2022-08-19T04:14:42;17.58;;;4.22;;
52952;SDS011;38815;55.932;-3.232;2022-08-19T04:17:07;12.95;;;2.97;;
52952;SDS011;38815;55.932;-3.232;2022-08-19T04:19:34;12.55;;;3.08;;
52952;SDS011;38815;55.932;-3.232;2022-08-19T04:22:00;15.35;;;3.55;;
52952;SDS011;38815;55.932;-3.232;2022-08-19T04:24:26;17.15;;;3.78;;
52952;SDS011;38815;55.932;-3.232;2022-08-19T04:26:51;18.00;;;3.25;;
52952;SDS011;38815;55.932;-3.232;2022-08-19T04:29:18;16.92;;;2.85;;
52952;SDS011;38815;55.932;-3.232;2022-08-19T04:31:47;16.30;;;3.08;;
52952;SDS011;38815;55.932;-3.232;2022-08-19T04:34:14;16.02;;;3.35;;
52952;SDS011;38815;55.932;-3.232;2022-08-19T04:36:41;13.38;;;3.58;;
52952;SDS011;38815;55.932;-3.232;2022-08-19T04:39:16;15.43;;;3.10;;
52952;SDS011;38815;55.932;-3.232;2022-08-19T04:44:28;15.35;;;3.00;;
52952;SDS011;38815;55.932;-3.232;2022-08-19T04:46:56;11.60;;;2.80;;
52952;SDS011;38815;55.932;-3.232;2022-08-19T04:49:22;16.90;;;3.00;;
52952;SDS011;38815;55.932;-3.232;2022-08-19T04:51:48;11.57;;;2.78;;
52952;SDS011;38815;55.932;-3.232;2022-08-19T04:54:17;16.00;;;3.00;;
52952;SDS011;38815;55.932;-3.232;2022-08-19T04:56:46;15.70;;;2.90;;
52952;SDS011;38815;55.932;-3.232;2022-08-19T04:59:11;13.85;;;2.78;;
52952;SDS011;38815;55.932;-3.232;2022-08-19T05:01:37;15.52;;;3.00;;
52952;SDS011;38815;55.932;-3.232;2022-08-19T05:04:03;13.27;;;3.00;;
52952;SDS011;38815;55.932;-3.232;2022-08-19T05:06:31;18.45;;;3.63;;
52952;SDS011;38815;55.932;-3.232;2022-08-19T05:08:59;17.10;;;3.25;;
52952;SDS011;38815;55.932;-3.232;2022-08-19T05:11:28;15.68;;;3.15;;
52952;SDS011;38815;55.932;-3.232;2022-08-19T05:13:58;16.63;;;2.97;;
52952;SDS011;38815;55.932;-3.232;2022-08-19T05:16:24;12.77;;;2.35;;
52952;SDS011;38815;55.932;-3.232;2022-08-19T05:18:51;16.40;;;3.15;;
52952;SDS011;38815;55.932;-3.232;2022-08-19T05:21:35;17.85;;;2.85;;
52952;SDS011;38815;55.932;-3.232;2022-08-19T05:24:20;16.70;;;3.60;;
52952;SDS011;38815;55.932;-3.232;2022-08-19T05:26:48;17.00;;;3.75;;
52952;SDS011;38815;55.932;-3.232;2022-08-19T05:29:15;16.23;;;4.32;;
52952;SDS011;38815;55.932;-3.232;2022-08-19T05:31:44;17.10;;;3.00;;
52952;SDS011;38815;55.932;-3.232;2022-08-19T05:34:10;19.08;;;2.95;;
52952;SDS011;38815;55.932;-3.232;2022-08-19T05:36:37;15.10;;;3.80;;
52952;SDS011;38815;55.932;-3.232;2022-08-19T05:39:09;14.70;;;2.95;;
52952;SDS011;38815;55.932;-3.232;2022-08-19T05:41:44;16.92;;;3.33;;
52952;SDS011;38815;55.932;-3.232;2022-08-19T05:44:12;14.57;;;3.50;;
52952;SDS011;38815;55.932;-3.232;2022-08-19T05:46:38;13.88;;;2.90;;
52952;SDS011;38815;55.932;-3.232;2022-08-19T05:49:06;16.70;;;3.88;;
52952;SDS011;38815;55.932;-3.232;2022-08-19T05:51:33;11.48;;;2.75;;
52952;SDS011;38815;55.932;-3.232;2022-08-19T05:54:01;12.15;;;2.60;;
52952;SDS011;38815;55.932;-3.232;2022-08-19T05:56:28;10.30;;;2.72;;
52952;SDS011;38815;55.932;-3.232;2022-08-19T05:58:55;14.52;;;3.95;;
52952;SDS011;38815;55.932;-3.232;2022-08-19T06:01:21;18.08;;;3.55;;
52952;SDS011;38815;55.932;-3.232;2022-08-19T06:03:46;16.48;;;3.90;;
52952;SDS011;38815;55.932;-3.232;2022-08-19T06:06:13;13.15;;;3.25;;
52952;SDS011;38815;55.932;-3.232;2022-08-19T06:08:40;11.88;;;2.88;;
52952;SDS011;38815;55.932;-3.232;2022-08-19T06:11:34;12.45;;;2.40;;
52952;SDS011;38815;55.932;-3.232;2022-08-19T06:14:05;13.90;;;2.72;;
52952;SDS011;38815;55.932;-3.232;2022-08-19T06:16:36;13.20;;;2.78;;
52952;SDS011;38815;55.932;-3.232;2022-08-19T06:19:04;12.40;;;2.90;;
52952;SDS011;38815;55.932;-3.232;2022-08-19T06:21:36;13.75;;;2.65;;
52952;SDS011;38815;55.932;-3.232;2022-08-19T06:24:07;14.48;;;3.00;;
52952;SDS011;38815;55.932;-3.232;2022-08-19T06:26:36;16.80;;;2.83;;
52952;SDS011;38815;55.932;-3.232;2022-08-19T06:29:03;16.30;;;3.63;;
52952;SDS011;38815;55.932;-3.232;2022-08-19T06:31:31;13.57;;;2.53;;
52952;SDS011;38815;55.932;-3.232;2022-08-19T06:33:59;13.85;;;2.60;;
52952;SDS011;38815;55.932;-3.232;2022-08-19T06:36:28;14.55;;;2.75;;
52952;SDS011;38815;55.932;-3.232;2022-08-19T06:39:04;13.55;;;2.63;;
52952;SDS011;38815;55.932;-3.232;2022-08-19T06:41:33;17.88;;;3.38;;
52952;SDS011;38815;55.932;-3.232;2022-08-19T06:44:00;12.48;;;3.13;;
52952;SDS011;38815;55.932;-3.232;2022-08-19T06:46:26;16.10;;;3.97;;
52952;SDS011;38815;55.932;-3.232;2022-08-19T06:48:52;12.05;;;2.75;;
52952;SDS011;38815;55.932;-3.232;2022-08-19T06:51:19;17.10;;;2.78;;
52952;SDS011;38815;55.932;-3.232;2022-08-19T06:53:46;15.82;;;2.38;;
52952;SDS011;38815;55.932;-3.232;2022-08-19T06:56:13;15.73;;;2.90;;
52952;SDS011;38815;55.932;-3.232;2022-08-19T06:58:40;10.18;;;2.28;;
52952;SDS011;38815;55.932;-3.232;2022-08-19T07:01:06;11.27;;;2.20;;
52952;SDS011;38815;55.932;-3.232;2022-08-19T07:03:33;10.55;;;2.55;;
52952;SDS011;38815;55.932;-3.232;2022-08-19T07:06:07;12.05;;;2.50;;
52952;SDS011;38815;55.932;-3.232;2022-08-19T07:08:34;14.70;;;2.55;;
52952;SDS011;38815;55.932;-3.232;2022-08-19T07:11:02;15.25;;;2.63;;
52952;SDS011;38815;55.932;-3.232;2022-08-19T07:13:31;12.68;;;2.33;;
52952;SDS011;38815;55.932;-3.232;2022-08-19T07:15:58;13.32;;;2.55;;
52952;SDS011;38815;55.932;-3.232;2022-08-19T07:18:31;11.00;;;2.95;;
52952;SDS011;38815;55.932;-3.232;2022-08-19T07:21:04;16.85;;;2.70;;
52952;SDS011;38815;55.932;-3.232;2022-08-19T07:23:31;12.30;;;2.92;;
52952;SDS011;38815;55.932;-3.232;2022-08-19T07:25:57;12.73;;;2.90;;
52952;SDS011;38815;55.932;-3.232;2022-08-19T07:28:22;15.93;;;2.97;;
52952;SDS011;38815;55.932;-3.232;2022-08-19T07:30:48;10.90;;;2.33;;
52952;SDS011;38815;55.932;-3.232;2022-08-19T07:33:15;12.20;;;2.78;;
52952;SDS011;38815;55.932;-3.232;2022-08-19T07:35:43;12.95;;;2.22;;
52952;SDS011;38815;55.932;-3.232;2022-08-19T07:38:08;11.70;;;2.33;;
52952;SDS011;38815;55.932;-3.232;2022-08-19T07:40:34;11.57;;;2.42;;
52952;SDS011;38815;55.932;-3.232;2022-08-19T07:42:59;14.50;;;2.95;;
52952;SDS011;38815;55.932;-3.232;2022-08-19T07:45:25;10.25;;;2.00;;
52952;SDS011;38815;55.932;-3.232;2022-08-19T07:47:51;11.70;;;2.65;;
52952;SDS011;38815;55.932;-3.232;2022-08-19T07:50:18;12.77;;;2.00;;
52952;SDS011;38815;55.932;-3.232;2022-08-19T07:52:45;14.60;;;2.03;;
52952;SDS011;38815;55.932;-3.232;2022-08-19T07:55:11;12.68;;;2.28;;
52952;SDS011;38815;55.932;-3.232;2022-08-19T07:57:37;9.65;;;2.15;;
52952;SDS011;38815;55.932;-3.232;2022-08-19T08:00:03;10.00;;;2.65;;
52952;SDS011;38815;55.932;-3.232;2022-08-19T08:02:30;13.73;;;2.20;;
52952;SDS011;38815;55.932;-3.232;2022-08-19T08:04:56;13.32;;;2.35;;
52952;SDS011;38815;55.932;-3.232;2022-08-19T08:07:40;13.23;;;2.78;;
52952;SDS011;38815;55.932;-3.232;2022-08-19T08:10:23;17.98;;;3.75;;
52952;SDS011;38815;55.932;-3.232;2022-08-19T08:12:49;12.13;;;2.88;;
52952;SDS011;38815;55.932;-3.232;2022-08-19T08:15:15;18.33;;;3.33;;
52952;SDS011;38815;55.932;-3.232;2022-08-19T08:17:42;16.40;;;4.35;;
52952;SDS011;38815;55.932;-3.232;2022-08-19T08:20:08;20.77;;;4.82;;
52952;SDS011;38815;55.932;-3.232;2022-08-19T08:22:34;15.40;;;3.95;;
52952;SDS011;38815;55.932;-3.232;2022-08-19T08:25:20;16.70;;;3.30;;
52952;SDS011;38815;55.932;-3.232;2022-08-19T08:27:48;14.30;;;2.72;;
52952;SDS011;38815;55.932;-3.232;2022-08-19T08:30:21;12.75;;;2.50;;
52952;SDS011;38815;55.932;-3.232;2022-08-19T08:32:49;12.02;;;2.67;;
52952;SDS011;38815;55.932;-3.232;2022-08-19T08:35:17;13.50;;;3.83;;
52952;SDS011;38815;55.932;-3.232;2022-08-19T08:37:45;14.73;;;3.58;;
52952;SDS011;38815;55.932;-3.232;2022-08-19T08:43:03;19.52;;;2.90;;
52952;SDS011;38815;55.932;-3.232;2022-08-19T08:45:30;12.95;;;3.50;;
52952;SDS011;38815;55.932;-3.232;2022-08-19T08:48:00;12.40;;;3.58;;
52952;SDS011;38815;55.932;-3.232;2022-08-19T08:50:33;12.88;;;2.35;;
52952;SDS011;38815;55.932;-3.232;2022-08-19T08:53:06;15.02;;;3.55;;
52952;SDS011;38815;55.932;-3.232;2022-08-19T08:55:33;14.43;;;4.13;;
52952;SDS011;38815;55.932;-3.232;2022-08-19T08:58:01;14.05;;;3.65;;
52952;SDS011;38815;55.932;-3.232;2022-08-19T09:00:49;16.55;;;4.15;;
52952;SDS011;38815;55.932;-3.232;2022-08-19T09:06:03;17.67;;;4.90;;
52952;SDS011;38815;55.932;-3.232;2022-08-19T09:17:33;16.23;;;2.65;;
52952;SDS011;38815;55.932;-3.232;2022-08-19T09:20:00;11.90;;;3.10;;
52952;SDS011;38815;55.932;-3.232;2022-08-19T09:22:34;12.90;;;2.92;;
52952;SDS011;38815;55.932;-3.232;2022-08-19T09:25:00;14.30;;;3.10;;
52952;SDS011;38815;55.932;-3.232;2022-08-19T09:27:28;15.73;;;2.75;;
52952;SDS011;38815;55.932;-3.232;2022-08-19T09:29:54;14.18;;;3.78;;
52952;SDS011;38815;55.932;-3.232;2022-08-19T09:32:20;15.23;;;2.83;;
52952;SDS011;38815;55.932;-3.232;2022-08-19T09:34:47;16.52;;;5.55;;
52952;SDS011;38815;55.932;-3.232;2022-08-19T09:37:12;11.45;;;2.70;;
52952;SDS011;38815;55.932;-3.232;2022-08-19T09:39:39;16.23;;;3.25;;
52952;SDS011;38815;55.932;-3.232;2022-08-19T09:42:06;11.00;;;2.35;;
52952;SDS011;38815;55.932;-3.232;2022-08-19T09:44:36;15.02;;;5.35;;
52952;SDS011;38815;55.932;-3.232;2022-08-19T09:47:03;12.82;;;3.38;;
52952;SDS011;38815;55.932;-3.232;2022-08-19T09:49:29;12.30;;;3.80;;
52952;SDS011;38815;55.932;-3.232;2022-08-19T09:51:56;12.50;;;2.17;;
52952;SDS011;38815;55.932;-3.232;2022-08-19T09:54:21;15.55;;;4.47;;
52952;SDS011;38815;55.932;-3.232;2022-08-19T09:56:47;17.15;;;7.45;;
52952;SDS011;38815;55.932;-3.232;2022-08-19T09:59:13;21.00;;;5.00;;
52952;SDS011;38815;55.932;-3.232;2022-08-19T10:01:38;20.05;;;8.23;;
52952;SDS011;38815;55.932;-3.232;2022-08-19T10:04:04;18.20;;;4.70;;
52952;SDS011;38815;55.932;-3.232;2022-08-19T10:06:34;21.70;;;4.43;;
52952;SDS011;38815;55.932;-3.232;2022-08-19T10:09:01;11.40;;;2.40;;
52952;SDS011;38815;55.932;-3.232;2022-08-19T10:11:29;11.68;;;3.40;;
52952;SDS011;38815;55.932;-3.232;2022-08-19T10:13:55;15.35;;;4.47;;
52952;SDS011;38815;55.932;-3.232;2022-08-19T10:16:21;15.75;;;3.22;;
52952;SDS011;38815;55.932;-3.232;2022-08-19T10:18:48;12.95;;;3.80;;
52952;SDS011;38815;55.932;-3.232;2022-08-19T10:21:25;14.07;;;3.00;;
52952;SDS011;38815;55.932;-3.232;2022-08-19T10:23:54;13.77;;;2.75;;
52952;SDS011;38815;55.932;-3.232;2022-08-19T10:26:23;15.52;;;3.00;;
52952;SDS011;38815;55.932;-3.232;2022-08-19T10:28:51;11.30;;;2.35;;
52952;SDS011;38815;55.932;-3.232;2022-08-19T10:31:20;14.15;;;3.85;;
52952;SDS011;38815;55.932;-3.232;2022-08-19T10:33:50;13.40;;;4.07;;
52952;SDS011;38815;55.932;-3.232;2022-08-19T10:36:23;10.68;;;2.72;;
52952;SDS011;38815;55.932;-3.232;2022-08-19T10:38:55;11.30;;;2.95;;
52952;SDS011;38815;55.932;-3.232;2022-08-19T10:41:25;11.23;;;3.60;;
52952;SDS011;38815;55.932;-3.232;2022-08-19T10:43:54;14.90;;;3.38;;
52952;SDS011;38815;55.932;-3.232;2022-08-19T10:46:23;14.10;;;4.40;;
52952;SDS011;38815;55.932;-3.232;2022-08-19T10:48:50;15.57;;;4.18;;
52952;SDS011;38815;55.932;-3.232;2022-08-19T10:51:16;13.98;;;3.65;;
52952;SDS011;38815;55.932;-3.232;2022-08-19T10:54:01;11.00;;;2.78;;
52952;SDS011;38815;55.932;-3.232;2022-08-19T10:56:27;13.10;;;3.97;;
52952;SDS011;38815;55.932;-3.232;2022-08-19T10:59:14;13.80;;;4.03;;
52952;SDS011;38815;55.932;-3.232;2022-08-19T11:01:41;15.52;;;3.40;;
52952;SDS011;38815;55.932;-3.232;2022-08-19T11:04:08;11.05;;;3.47;;
52952;SDS011;38815;55.932;-3.232;2022-08-19T11:06:36;11.80;;;3.15;;
52952;SDS011;38815;55.932;-3.232;2022-08-19T11:09:03;13.32;;;3.05;;
52952;SDS011;38815;55.932;-3.232;2022-08-19T11:11:30;11.65;;;2.70;;
52952;SDS011;38815;55.932;-3.232;2022-08-19T11:13:57;15.82;;;4.93;;
52952;SDS011;38815;55.932;-3.232;2022-08-19T11:16:24;12.23;;;3.45;;
52952;SDS011;38815;55.932;-3.232;2022-08-19T11:18:53;10.52;;;1.88;;
52952;SDS011;38815;55.932;-3.232;2022-08-19T11:21:27;8.25;;;1.95;;
52952;SDS011;38815;55.932;-3.232;2022-08-19T11:23:58;13.18;;;4.10;;
52952;SDS011;38815;55.932;-3.232;2022-08-19T11:26:27;8.63;;;1.83;;
52952;SDS011;38815;55.932;-3.232;2022-08-19T11:28:54;10.02;;;2.58;;
52952;SDS011;38815;55.932;-3.232;2022-08-19T11:31:21;12.57;;;3.10;;
52952;SDS011;38815;55.932;-3.232;2022-08-19T11:33:49;9.88;;;2.65;;
52952;SDS011;38815;55.932;-3.232;2022-08-19T11:36:19;15.68;;;4.07;;
52952;SDS011;38815;55.932;-3.232;2022-08-19T11:38:46;11.75;;;2.65;;
52952;SDS011;38815;55.932;-3.232;2022-08-19T11:41:16;6.95;;;2.00;;
52952;SDS011;38815;55.932;-3.232;2022-08-19T11:43:44;14.50;;;4.63;;
52952;SDS011;38815;55.932;-3.232;2022-08-19T11:46:11;19.10;;;7.43;;
52952;SDS011;38815;55.932;-3.232;2022-08-19T11:48:39;14.93;;;4.80;;
52952;SDS011;38815;55.932;-3.232;2022-08-19T11:51:07;14.80;;;4.57;;
52952;SDS011;38815;55.932;-3.232;2022-08-19T11:53:37;12.82;;;3.85;;
52952;SDS011;38815;55.932;-3.232;2022-08-19T11:56:04;15.23;;;3.88;;
52952;SDS011;38815;55.932;-3.232;2022-08-19T11:58:30;16.80;;;5.43;;
52952;SDS011;38815;55.932;-3.232;2022-08-19T12:00:56;16.92;;;5.88;;
52952;SDS011;38815;55.932;-3.232;2022-08-19T12:03:21;19.20;;;7.97;;
52952;SDS011;38815;55.932;-3.232;2022-08-19T12:05:47;14.18;;;3.35;;
52952;SDS011;38815;55.932;-3.232;2022-08-19T12:08:14;19.35;;;7.43;;
52952;SDS011;38815;55.932;-3.232;2022-08-19T12:10:40;13.00;;;3.60;;
52952;SDS011;38815;55.932;-3.232;2022-08-19T12:13:08;11.90;;;2.75;;
52952;SDS011;38815;55.932;-3.232;2022-08-19T12:15:36;12.43;;;3.50;;
52952;SDS011;38815;55.932;-3.232;2022-08-19T12:18:03;10.70;;;2.70;;
52952;SDS011;38815;55.932;-3.232;2022-08-19T12:20:29;11.65;;;3.00;;
52952;SDS011;38815;55.932;-3.232;2022-08-19T12:22:54;7.22;;;1.88;;
52952;SDS011;38815;55.932;-3.232;2022-08-19T12:25:20;10.88;;;3.00;;
52952;SDS011;38815;55.932;-3.232;2022-08-19T12:27:45;10.30;;;2.63;;
52952;SDS011;38815;55.932;-3.232;2022-08-19T12:30:12;13.05;;;3.95;;
52952;SDS011;38815;55.932;-3.232;2022-08-19T12:32:38;10.82;;;3.25;;
52952;SDS011;38815;55.932;-3.232;2022-08-19T12:35:05;14.52;;;4.22;;
52952;SDS011;38815;55.932;-3.232;2022-08-19T12:37:31;13.20;;;4.93;;
52952;SDS011;38815;55.932;-3.232;2022-08-19T12:39:57;11.77;;;3.03;;
52952;SDS011;38815;55.932;-3.232;2022-08-19T12:42:23;13.45;;;4.88;;
52952;SDS011;38815;55.932;-3.232;2022-08-19T12:44:49;11.55;;;3.60;;
52952;SDS011;38815;55.932;-3.232;2022-08-19T12:47:15;11.05;;;2.63;;
52952;SDS011;38815;55.932;-3.232;2022-08-19T12:49:41;16.95;;;6.15;;
52952;SDS011;38815;55.932;-3.232;2022-08-19T12:52:09;14.23;;;4.90;;
52952;SDS011;38815;55.932;-3.232;2022-08-19T12:54:35;13.40;;;4.07;;
52952;SDS011;38815;55.932;-3.232;2022-08-19T12:57:05;24.48;;;12.52;;
52952;SDS011;38815;55.932;-3.232;2022-08-19T12:59:35;14.00;;;4.95;;
52952;SDS011;38815;55.932;-3.232;2022-08-19T13:02:02;14.13;;;4.90;;
52952;SDS011;38815;55.932;-3.232;2022-08-19T13:04:34;13.05;;;4.57;;
52952;SDS011;38815;55.932;-3.232;2022-08-19T13:07:01;33.80;;;19.48;;
52952;SDS011;38815;55.932;-3.232;2022-08-19T13:09:27;42.25;;;24.52;;
52952;SDS011;38815;55.932;-3.232;2022-08-19T13:11:52;36.50;;;20.40;;
52952;SDS011;38815;55.932;-3.232;2022-08-19T13:14:18;22.30;;;11.27;;
52952;SDS011;38815;55.932;-3.232;2022-08-19T13:16:43;19.23;;;9.05;;
52952;SDS011;38815;55.932;-3.232;2022-08-19T13:19:09;40.33;;;24.30;;
52952;SDS011;38815;55.932;-3.232;2022-08-19T13:21:35;59.63;;;35.00;;
52952;SDS011;38815;55.932;-3.232;2022-08-19T13:24:01;28.58;;;14.98;;
52952;SDS011;38815;55.932;-3.232;2022-08-19T13:26:27;38.80;;;22.33;;
52952;SDS011;38815;55.932;-3.232;2022-08-19T13:28:52;78.07;;;44.50;;
52952;SDS011;38815;55.932;-3.232;2022-08-19T13:31:38;39.70;;;22.38;;
52952;SDS011;38815;55.932;-3.232;2022-08-19T13:34:31;33.10;;;18.80;;
52952;SDS011;38815;55.932;-3.232;2022-08-19T13:37:02;63.25;;;24.42;;
52952;SDS011;38815;55.932;-3.232;2022-08-19T13:39:32;240.55;;;102.82;;
52952;SDS011;38815;55.932;-3.232;2022-08-19T13:41:58;232.02;;;97.53;;
52952;SDS011;38815;55.932;-3.232;2022-08-19T13:44:25;130.93;;;57.60;;
52952;SDS011;38815;55.932;-3.232;2022-08-19T13:46:51;102.30;;;46.55;;
52952;SDS011;38815;55.932;-3.232;2022-08-19T13:49:18;106.03;;;54.42;;
52952;SDS011;38815;55.932;-3.232;2022-08-19T13:51:43;58.80;;;33.20;;
52952;SDS011;38815;55.932;-3.232;2022-08-19T13:54:10;32.83;;;14.98;;
52952;SDS011;38815;55.932;-3.232;2022-08-19T13:56:41;44.97;;;25.55;;
52952;SDS011;38815;55.932;-3.232;2022-08-19T13:59:08;27.55;;;13.40;;
52952;SDS011;38815;55.932;-3.232;2022-08-19T14:01:33;51.78;;;29.67;;
52952;SDS011;38815;55.932;-3.232;2022-08-19T14:03:59;48.70;;;27.50;;
52952;SDS011;38815;55.932;-3.232;2022-08-19T14:06:25;39.80;;;22.42;;
52952;SDS011;38815;55.932;-3.232;2022-08-19T14:08:51;20.67;;;8.98;;
52952;SDS011;38815;55.932;-3.232;2022-08-19T14:11:17;66.03;;;38.03;;
52952;SDS011;38815;55.932;-3.232;2022-08-19T14:13:43;52.90;;;30.95;;
52952;SDS011;38815;55.932;-3.232;2022-08-19T14:16:10;56.38;;;31.80;;
52952;SDS011;38815;55.932;-3.232;2022-08-19T14:18:38;39.90;;;23.23;;
52952;SDS011;38815;55.932;-3.232;2022-08-19T14:21:04;31.70;;;16.75;;
52952;SDS011;38815;55.932;-3.232;2022-08-19T14:23:31;25.65;;;11.52;;
52952;SDS011;38815;55.932;-3.232;2022-08-19T14:26:11;54.63;;;30.88;;
52952;SDS011;38815;55.932;-3.232;2022-08-19T14:28:39;34.67;;;18.60;;
52952;SDS011;38815;55.932;-3.232;2022-08-19T14:31:06;25.17;;;12.43;;
52952;SDS011;38815;55.932;-3.232;2022-08-19T14:33:33;22.55;;;8.95;;
52952;SDS011;38815;55.932;-3.232;2022-08-19T14:36:03;19.33;;;6.50;;
52952;SDS011;38815;55.932;-3.232;2022-08-19T14:38:29;13.32;;;5.07;;
52952;SDS011;38815;55.932;-3.232;2022-08-19T14:41:04;49.00;;;28.40;;
52952;SDS011;38815;55.932;-3.232;2022-08-19T14:43:32;23.80;;;10.93;;
52952;SDS011;38815;55.932;-3.232;2022-08-19T14:45:58;43.45;;;24.58;;
52952;SDS011;38815;55.932;-3.232;2022-08-19T14:48:23;41.88;;;24.10;;
52952;SDS011;38815;55.932;-3.232;2022-08-19T14:50:48;24.98;;;12.05;;
52952;SDS011;38815;55.932;-3.232;2022-08-19T14:53:15;23.45;;;11.73;;